createdAt,value
2018-04-07T00:01:41.554Z,7.30
2018-04-07T00:04:07.812Z,7.30
2018-04-07T00:06:33.997Z,7.30
2018-04-07T00:09:00.268Z,7.30
2018-04-07T00:11:26.906Z,7.20
2018-04-07T00:13:54.603Z,7.20
2018-04-07T00:16:21.594Z,7.20
2018-04-07T00:18:48.149Z,7.20
2018-04-07T00:21:14.353Z,7.20
2018-04-07T00:23:40.569Z,7.20
2018-04-07T00:26:07.144Z,7.10
2018-04-07T00:28:33.348Z,7.10
2018-04-07T00:30:59.558Z,7.10
2018-04-07T00:33:25.763Z,7.10
2018-04-07T00:35:52.058Z,7.10
2018-04-07T00:38:18.272Z,7.10
2018-04-07T00:40:44.518Z,7.00
2018-04-07T00:43:10.802Z,7.00
2018-04-07T00:45:37.149Z,7.00
2018-04-07T00:48:03.363Z,7.00
2018-04-07T00:50:29.657Z,7.00
2018-04-07T00:52:57.775Z,6.90
2018-04-07T00:55:23.984Z,6.90
2018-04-07T00:57:50.589Z,6.90
2018-04-07T01:00:18.277Z,6.90
2018-04-07T01:02:45.247Z,6.90
2018-04-07T01:05:11.853Z,6.90
2018-04-07T01:07:38.804Z,6.90
2018-04-07T01:10:05.953Z,6.90
2018-04-07T01:12:33.264Z,6.80
2018-04-07T01:14:59.482Z,6.80
2018-04-07T01:17:25.701Z,6.80
2018-04-07T01:19:51.925Z,6.80
2018-04-07T01:22:18.131Z,6.70
2018-04-07T01:24:44.518Z,6.70
2018-04-07T01:27:10.738Z,6.70
2018-04-07T01:29:36.994Z,6.70
2018-04-07T01:32:03.210Z,6.70
2018-04-07T01:34:29.422Z,6.70
2018-04-07T01:36:55.650Z,6.60
2018-04-07T01:39:21.895Z,6.60
2018-04-07T01:41:48.544Z,6.60
2018-04-07T01:44:14.745Z,6.60
2018-04-07T01:46:40.945Z,6.60
2018-04-07T01:49:07.181Z,6.60
2018-04-07T01:51:33.412Z,6.50
2018-04-07T01:53:59.623Z,6.50
2018-04-07T01:56:25.820Z,6.50
2018-04-07T01:58:52.062Z,6.50
2018-04-07T02:01:19.078Z,6.40
2018-04-07T02:03:45.297Z,6.40
2018-04-07T02:06:11.530Z,6.40
2018-04-07T02:08:38.546Z,6.40
2018-04-07T02:11:04.802Z,6.30
2018-04-07T02:13:31.032Z,6.30
2018-04-07T02:15:57.280Z,6.30
2018-04-07T02:18:24.970Z,6.20
2018-04-07T02:20:51.378Z,6.20
2018-04-07T02:23:17.619Z,6.20
2018-04-07T02:25:43.856Z,6.20
2018-04-07T02:28:10.934Z,6.10
2018-04-07T02:30:37.222Z,6.10
2018-04-07T02:33:03.414Z,6.10
2018-04-07T02:35:29.793Z,6.10
2018-04-07T02:37:57.078Z,6.00
2018-04-07T02:40:23.310Z,6.00
2018-04-07T02:42:49.621Z,6.00
2018-04-07T02:45:15.868Z,6.00
2018-04-07T02:47:42.122Z,6.00
2018-04-07T02:50:08.356Z,5.90
2018-04-07T02:52:34.654Z,5.90
2018-04-07T02:55:01.096Z,5.90
2018-04-07T02:57:27.327Z,5.90
2018-04-07T02:59:53.657Z,5.80
2018-04-07T03:02:19.883Z,5.90
2018-04-07T03:04:46.120Z,5.80
2018-04-07T03:07:12.485Z,5.80
2018-04-07T03:09:40.179Z,5.70
2018-04-07T03:12:07.120Z,5.80
2018-04-07T03:14:34.086Z,5.70
2018-04-07T03:17:00.318Z,5.70
2018-04-07T03:19:26.528Z,5.70
2018-04-07T03:21:53.571Z,5.70
2018-04-07T03:24:20.522Z,5.70
2018-04-07T03:26:47.522Z,5.60
2018-04-07T03:29:13.741Z,5.60
2018-04-07T03:31:39.959Z,5.60
2018-04-07T03:34:06.194Z,5.60
2018-04-07T03:36:32.441Z,5.50
2018-04-07T03:38:58.647Z,5.50
2018-04-07T03:41:24.902Z,5.50
2018-04-07T03:43:51.348Z,5.50
2018-04-07T03:46:17.599Z,5.50
2018-04-07T03:48:44.648Z,5.50
2018-04-07T03:51:11.629Z,5.50
2018-04-07T03:53:38.417Z,5.40
2018-04-07T03:56:04.679Z,5.50
2018-04-07T03:58:31.608Z,5.40
2018-04-07T04:00:58.774Z,5.40
2018-04-07T04:03:25.002Z,5.40
2018-04-07T04:05:52.045Z,5.40
2018-04-07T04:08:18.999Z,5.40
2018-04-07T04:10:45.317Z,5.30
2018-04-07T04:13:12.263Z,5.30
2018-04-07T04:15:39.221Z,5.30
2018-04-07T04:18:05.488Z,5.30
2018-04-07T04:20:31.903Z,5.30
2018-04-07T04:22:58.135Z,5.30
2018-04-07T04:25:24.363Z,5.30
2018-04-07T04:27:50.675Z,5.30
2018-04-07T04:30:16.880Z,5.20
2018-04-07T04:32:44.032Z,5.20
2018-04-07T04:35:10.983Z,5.20
2018-04-07T04:37:37.930Z,5.20
2018-04-07T04:40:05.116Z,5.20
2018-04-07T04:42:31.663Z,5.20
2018-04-07T04:44:57.959Z,5.20
2018-04-07T04:47:24.164Z,5.20
2018-04-07T04:49:50.378Z,5.20
2018-04-07T04:52:16.601Z,5.20
2018-04-07T04:54:42.821Z,5.20
2018-04-07T04:57:09.034Z,5.10
2018-04-07T04:59:35.916Z,5.10
2018-04-07T05:02:02.133Z,5.10
2018-04-07T05:04:28.342Z,5.10
2018-04-07T05:06:54.566Z,5.10
2018-04-07T05:09:20.782Z,5.10
2018-04-07T05:11:47.033Z,5.10
2018-04-07T05:14:13.262Z,5.10
2018-04-07T05:16:39.543Z,5.20
2018-04-07T05:19:06.563Z,5.10
2018-04-07T05:21:32.768Z,5.10
2018-04-07T05:23:59.027Z,5.10
2018-04-07T05:26:25.231Z,5.10
2018-04-07T05:28:51.460Z,5.10
2018-04-07T05:31:17.818Z,5.10
2018-04-07T05:33:44.069Z,5.20
2018-04-07T05:36:11.164Z,5.20
2018-04-07T05:38:37.375Z,5.20
2018-04-07T05:41:03.588Z,5.10
2018-04-07T05:43:29.857Z,5.20
2018-04-07T05:45:56.130Z,5.20
2018-04-07T05:48:23.082Z,5.20
2018-04-07T05:50:50.075Z,5.20
2018-04-07T05:53:16.463Z,5.20
2018-04-07T05:55:43.406Z,5.20
2018-04-07T05:58:10.384Z,5.20
2018-04-07T06:00:36.633Z,5.20
2018-04-07T06:03:02.847Z,5.30
2018-04-07T06:05:29.073Z,5.20
2018-04-07T06:07:55.370Z,5.30
2018-04-07T06:10:21.625Z,5.30
2018-04-07T06:12:47.857Z,5.40
2018-04-07T06:15:14.080Z,5.50
2018-04-07T06:17:40.316Z,5.70
2018-04-07T06:20:06.554Z,6.00
2018-04-07T06:22:32.760Z,6.40
2018-04-07T06:24:58.986Z,6.80
2018-04-07T06:27:25.202Z,7.10
2018-04-07T06:29:51.808Z,7.30
2018-04-07T06:32:18.746Z,7.20
2018-04-07T06:34:44.994Z,7.20
2018-04-07T06:37:11.236Z,7.00
2018-04-07T06:39:37.573Z,6.80
2018-04-07T06:42:04.526Z,6.60
2018-04-07T06:44:31.480Z,6.60
2018-04-07T06:46:57.688Z,6.60
2018-04-07T06:49:24.634Z,6.70
2018-04-07T06:51:51.635Z,6.70
2018-04-07T06:54:17.944Z,6.70
2018-04-07T06:56:44.555Z,6.80
2018-04-07T06:59:11.500Z,7.00
2018-04-07T07:01:38.446Z,7.00
2018-04-07T07:04:05.396Z,7.10
2018-04-07T07:06:32.375Z,7.20
2018-04-07T07:08:58.722Z,7.20
2018-04-07T07:11:24.959Z,7.30
2018-04-07T07:13:51.250Z,7.30
2018-04-07T07:16:17.584Z,7.40
2018-04-07T07:18:43.869Z,7.50
2018-04-07T07:21:10.180Z,7.60
2018-04-07T07:23:36.417Z,7.60
2018-04-07T07:26:02.713Z,7.70
2018-04-07T07:28:28.918Z,7.80
2018-04-07T07:30:55.934Z,7.90
2018-04-07T07:33:22.935Z,8.00
2018-04-07T07:35:49.186Z,8.00
2018-04-07T07:38:15.488Z,8.00
2018-04-07T07:40:41.766Z,8.10
2018-04-07T07:43:07.999Z,8.20
2018-04-07T07:45:34.206Z,8.20
2018-04-07T07:48:00.630Z,8.30
2018-04-07T07:50:26.844Z,8.40
2018-04-07T07:52:53.197Z,8.40
2018-04-07T07:55:19.385Z,8.50
2018-04-07T07:57:46.434Z,8.70
2018-04-07T08:00:13.378Z,8.70
2018-04-07T08:02:40.341Z,8.80
2018-04-07T08:05:06.698Z,8.80
2018-04-07T08:07:32.903Z,9.00
2018-04-07T08:10:00.193Z,9.00
2018-04-07T08:12:26.444Z,9.20
2018-04-07T08:14:52.764Z,9.30
2018-04-07T08:17:20.444Z,9.50
2018-04-07T08:19:47.387Z,9.60
2018-04-07T08:22:13.592Z,9.60
2018-04-07T08:24:39.802Z,9.70
2018-04-07T08:27:06.091Z,9.80
2018-04-07T08:29:33.047Z,10.10
2018-04-07T08:31:59.414Z,10.10
2018-04-07T08:34:25.637Z,10.20
2018-04-07T08:36:51.847Z,10.40
2018-04-07T08:39:18.088Z,10.50
2018-04-07T08:41:44.296Z,10.60
2018-04-07T08:44:10.547Z,10.70
2018-04-07T08:46:36.764Z,10.80
2018-04-07T08:49:03.006Z,10.90
2018-04-07T08:51:29.206Z,11.10
2018-04-07T08:53:55.491Z,11.20
2018-04-07T08:56:21.706Z,11.40
2018-04-07T08:58:47.929Z,11.60
2018-04-07T09:01:14.157Z,11.70
2018-04-07T09:03:40.374Z,11.90
2018-04-07T09:06:06.582Z,12.00
2018-04-07T09:08:32.867Z,12.10
2018-04-07T09:10:59.186Z,12.30
2018-04-07T09:13:25.385Z,12.40
2018-04-07T09:15:51.733Z,12.60
2018-04-07T09:18:17.962Z,12.70
2018-04-07T09:20:44.154Z,12.90
2018-04-07T09:23:11.093Z,13.20
2018-04-07T09:25:38.037Z,13.40
2018-04-07T09:28:05.039Z,13.50
2018-04-07T09:30:31.262Z,13.50
2018-04-07T09:32:57.748Z,13.60
2018-04-07T09:35:24.681Z,13.90
2018-04-07T09:37:51.708Z,14.00
2018-04-07T09:40:17.970Z,14.00
2018-04-07T09:42:44.949Z,14.30
2018-04-07T09:45:11.406Z,14.30
2018-04-07T09:47:37.617Z,14.40
2018-04-07T09:50:03.915Z,14.60
2018-04-07T09:52:30.882Z,14.80
2018-04-07T09:54:57.131Z,14.70
2018-04-07T09:57:23.340Z,14.90
2018-04-07T09:59:49.595Z,15.00
2018-04-07T10:02:18.796Z,15.10
2018-04-07T10:04:45.924Z,15.20
2018-04-07T10:07:12.122Z,15.20
2018-04-07T10:09:39.237Z,15.40
2018-04-07T10:12:05.473Z,15.40
2018-04-07T10:14:31.706Z,15.50
2018-04-07T10:16:57.912Z,15.60
2018-04-07T10:19:24.192Z,15.70
2018-04-07T10:21:51.150Z,15.80
2018-04-07T10:24:17.474Z,15.70
2018-04-07T10:26:44.424Z,15.90
2018-04-07T10:29:10.682Z,15.90
2018-04-07T10:31:36.892Z,16.00
2018-04-07T10:34:03.196Z,16.10
2018-04-07T10:36:30.185Z,16.10
2018-04-07T10:38:56.862Z,16.10
2018-04-07T10:41:23.079Z,16.20
2018-04-07T10:43:49.296Z,16.20
2018-04-07T10:46:15.506Z,16.20
2018-04-07T10:48:41.799Z,16.20
2018-04-07T10:51:08.810Z,16.40
2018-04-07T10:53:35.028Z,16.30
2018-04-07T10:56:01.300Z,16.30
2018-04-07T10:58:28.253Z,16.40
2018-04-07T11:00:55.231Z,16.40
2018-04-07T11:03:21.476Z,16.40
2018-04-07T11:05:47.699Z,16.40
2018-04-07T11:08:14.014Z,16.30
2018-04-07T11:10:40.242Z,16.30
2018-04-07T11:13:06.457Z,16.40
2018-04-07T11:15:32.672Z,16.40
2018-04-07T11:17:59.636Z,16.40
2018-04-07T11:20:25.873Z,16.40
2018-04-07T11:22:52.091Z,16.40
2018-04-07T11:25:18.336Z,16.40
2018-04-07T11:27:44.540Z,16.40
2018-04-07T11:30:11.478Z,16.50
2018-04-07T11:32:38.447Z,16.40
2018-04-07T11:35:04.689Z,16.40
2018-04-07T11:37:30.891Z,16.40
2018-04-07T11:39:57.835Z,16.50
2018-04-07T11:42:24.786Z,16.50
2018-04-07T11:44:51.002Z,16.50
2018-04-07T11:47:17.969Z,16.60
2018-04-07T11:49:44.300Z,16.50
2018-04-07T11:52:10.546Z,16.60
2018-04-07T11:54:36.758Z,16.60
2018-04-07T11:57:02.996Z,16.60
2018-04-07T11:59:29.591Z,16.60
2018-04-07T12:01:56.554Z,16.70
2018-04-07T12:04:23.598Z,16.70
2018-04-07T12:06:50.568Z,16.70
2018-04-07T12:09:16.899Z,16.80
2018-04-07T12:11:43.103Z,16.80
2018-04-07T12:14:09.288Z,16.80
2018-04-07T12:16:35.554Z,16.80
2018-04-07T12:19:01.779Z,16.90
2018-04-07T12:21:28.002Z,16.90
2018-04-07T12:23:54.249Z,16.90
2018-04-07T12:26:21.210Z,17.00
2018-04-07T12:28:47.422Z,17.00
2018-04-07T12:31:14.370Z,17.10
2018-04-07T12:33:41.314Z,17.20
2018-04-07T12:36:08.267Z,17.10
2018-04-07T12:38:35.203Z,17.20
2018-04-07T12:41:02.184Z,17.30
2018-04-07T12:43:29.325Z,17.30
2018-04-07T12:45:55.613Z,17.20
2018-04-07T12:48:22.605Z,17.30
2018-04-07T12:50:48.834Z,17.30
2018-04-07T12:53:15.054Z,17.40
2018-04-07T12:55:41.305Z,17.30
2018-04-07T12:58:07.668Z,17.40
2018-04-07T13:00:33.878Z,17.40
2018-04-07T13:03:00.123Z,17.40
2018-04-07T13:05:26.378Z,17.50
2018-04-07T13:07:52.594Z,17.50
2018-04-07T13:10:18.827Z,17.60
2018-04-07T13:12:45.486Z,17.60
2018-04-07T13:15:11.858Z,17.60
2018-04-07T13:17:38.076Z,17.70
2018-04-07T13:20:04.284Z,17.80
2018-04-07T13:22:31.515Z,17.80
2018-04-07T13:24:57.754Z,17.80
2018-04-07T13:27:24.728Z,17.80
2018-04-07T13:29:51.710Z,17.80
2018-04-07T13:32:18.040Z,17.80
2018-04-07T13:34:44.289Z,17.80
2018-04-07T13:37:10.498Z,17.80
2018-04-07T13:39:37.066Z,17.80
2018-04-07T13:42:03.358Z,17.80
2018-04-07T13:44:29.650Z,17.80
2018-04-07T13:46:55.857Z,17.80
2018-04-07T13:49:23.049Z,17.90
2018-04-07T13:51:49.279Z,17.90
2018-04-07T13:54:15.507Z,18.00
2018-04-07T13:56:41.719Z,18.00
2018-04-07T13:59:07.948Z,18.00
2018-04-07T14:01:34.203Z,18.10
2018-04-07T14:04:00.430Z,18.10
2018-04-07T14:06:26.656Z,18.10
2018-04-07T14:08:52.887Z,18.10
2018-04-07T14:11:19.148Z,18.10
2018-04-07T14:13:45.368Z,18.20
2018-04-07T14:16:11.603Z,18.20
2018-04-07T14:18:37.793Z,18.20
2018-04-07T14:21:04.020Z,18.20
2018-04-07T14:23:30.293Z,18.20
2018-04-07T14:25:56.542Z,18.20
2018-04-07T14:28:22.837Z,18.30
2018-04-07T14:30:49.069Z,18.20
2018-04-07T14:33:15.277Z,18.30
2018-04-07T14:35:41.490Z,18.20
2018-04-07T14:38:07.754Z,18.20
2018-04-07T14:40:34.210Z,18.20
2018-04-07T14:43:00.476Z,18.20
2018-04-07T14:45:26.765Z,18.20
2018-04-07T14:47:53.030Z,18.20
2018-04-07T14:50:20.048Z,18.20
2018-04-07T14:52:46.266Z,18.20
2018-04-07T14:55:12.514Z,18.20
2018-04-07T14:57:38.773Z,18.30
2018-04-07T15:00:04.996Z,18.20
2018-04-07T15:02:31.974Z,18.20
2018-04-07T15:04:58.198Z,18.20
2018-04-07T15:07:24.425Z,18.20
2018-04-07T15:09:50.781Z,18.20
2018-04-07T15:12:17.102Z,18.10
2018-04-07T15:14:43.330Z,18.10
2018-04-07T15:17:09.909Z,18.10
2018-04-07T15:19:36.106Z,18.10
2018-04-07T15:22:02.338Z,18.10
2018-04-07T15:24:28.559Z,18.10
2018-04-07T15:26:55.434Z,18.20
2018-04-07T15:29:21.648Z,18.20
2018-04-07T15:31:47.855Z,18.20
2018-04-07T15:34:14.261Z,18.20
2018-04-07T15:36:40.489Z,18.20
2018-04-07T15:39:07.434Z,18.20
2018-04-07T15:41:34.708Z,18.20
2018-04-07T15:44:00.971Z,18.20
2018-04-07T15:46:27.199Z,18.30
2018-04-07T15:48:53.436Z,18.30
2018-04-07T15:51:19.677Z,18.30
2018-04-07T15:53:45.917Z,18.30
2018-04-07T15:56:13.690Z,18.30
2018-04-07T15:58:39.887Z,18.30
2018-04-07T16:01:06.450Z,18.30
2018-04-07T16:03:32.699Z,18.20
2018-04-07T16:05:59.674Z,18.20
2018-04-07T16:08:26.101Z,18.20
2018-04-07T16:10:52.475Z,18.20
2018-04-07T16:13:19.011Z,18.20
2018-04-07T16:15:45.317Z,18.20
2018-04-07T16:18:11.601Z,18.20
2018-04-07T16:20:38.246Z,18.20
2018-04-07T16:23:04.449Z,18.10
2018-04-07T16:25:30.669Z,18.10
2018-04-07T16:27:56.908Z,18.10
2018-04-07T16:30:23.280Z,18.10
2018-04-07T16:32:50.278Z,18.10
2018-04-07T16:35:16.732Z,18.00
2018-04-07T16:37:42.957Z,18.10
2018-04-07T16:40:09.190Z,18.00
2018-04-07T16:42:35.411Z,18.00
2018-04-07T16:45:01.704Z,18.00
2018-04-07T16:47:27.930Z,18.00
2018-04-07T16:49:54.176Z,18.00
2018-04-07T16:52:20.427Z,18.00
2018-04-07T16:54:46.730Z,18.00
2018-04-07T16:57:12.946Z,17.90
2018-04-07T16:59:39.141Z,17.90
2018-04-07T17:02:06.447Z,17.90
2018-04-07T17:04:32.761Z,17.90
2018-04-07T17:06:58.979Z,17.90
2018-04-07T17:09:25.170Z,17.80
2018-04-07T17:11:51.470Z,17.80
2018-04-07T17:14:17.706Z,17.80
2018-04-07T17:16:43.938Z,17.70
2018-04-07T17:19:10.137Z,17.80
2018-04-07T17:21:43.256Z,17.70
2018-04-07T17:24:09.465Z,17.70
2018-04-07T17:26:35.676Z,17.70
2018-04-07T17:29:02.029Z,17.60
2018-04-07T17:31:28.395Z,17.60
2018-04-07T17:33:54.605Z,17.60
2018-04-07T17:36:20.810Z,17.60
2018-04-07T17:38:47.025Z,17.50
2018-04-07T17:41:14.150Z,17.50
2018-04-07T17:43:40.410Z,17.50
2018-04-07T17:46:07.383Z,17.40
2018-04-07T17:48:33.582Z,17.40
2018-04-07T17:50:59.806Z,17.40
2018-04-07T17:53:26.070Z,17.30
2018-04-07T17:55:53.064Z,17.20
2018-04-07T17:58:19.275Z,17.20
2018-04-07T18:00:45.536Z,17.20
2018-04-07T18:03:11.755Z,17.10
2018-04-07T18:05:37.967Z,17.10
2018-04-07T18:08:04.255Z,17.00
2018-04-07T18:10:31.205Z,16.90
2018-04-07T18:12:58.234Z,16.90
2018-04-07T18:15:24.457Z,16.80
2018-04-07T18:17:50.663Z,16.80
2018-04-07T18:20:17.331Z,16.80
2018-04-07T18:22:43.572Z,16.70
2018-04-07T18:25:10.590Z,16.60
2018-04-07T18:27:36.964Z,16.60
2018-04-07T18:30:04.178Z,16.50
2018-04-07T18:32:30.407Z,16.50
2018-04-07T18:34:56.642Z,16.40
2018-04-07T18:37:22.909Z,16.30
2018-04-07T18:39:49.909Z,16.20
2018-04-07T18:42:16.198Z,16.20
2018-04-07T18:44:42.466Z,16.20
2018-04-07T18:47:08.707Z,16.20
2018-04-07T18:49:36.235Z,16.10
2018-04-07T18:52:02.719Z,16.10
2018-04-07T18:54:30.481Z,15.90
2018-04-07T18:56:56.774Z,15.90
2018-04-07T18:59:22.988Z,15.80
2018-04-07T19:01:49.337Z,15.80
2018-04-07T19:04:15.549Z,15.80
2018-04-07T19:06:41.814Z,15.80
2018-04-07T19:09:08.212Z,15.70
2018-04-07T19:11:34.454Z,15.70
2018-04-07T19:14:00.670Z,15.60
2018-04-07T19:16:26.997Z,15.60
2018-04-07T19:18:53.232Z,15.60
2018-04-07T19:21:19.440Z,15.60
2018-04-07T19:23:46.186Z,15.50
2018-04-07T19:26:12.558Z,15.50
2018-04-07T19:28:38.754Z,15.40
2018-04-07T19:31:05.091Z,15.30
2018-04-07T19:33:31.357Z,15.40
2018-04-07T19:35:57.668Z,15.30
2018-04-07T19:38:23.916Z,15.20
2018-04-07T19:40:50.138Z,15.20
2018-04-07T19:43:16.348Z,15.20
2018-04-07T19:45:42.717Z,15.10
2018-04-07T19:48:09.685Z,15.00
2018-04-07T19:50:36.043Z,15.10
2018-04-07T19:53:02.241Z,15.10
2018-04-07T19:55:29.205Z,14.90
2018-04-07T19:57:55.815Z,14.90
2018-04-07T20:00:22.027Z,14.90
2018-04-07T20:02:48.314Z,14.80
2018-04-07T20:05:14.563Z,14.80
2018-04-07T20:07:40.938Z,14.80
2018-04-07T20:10:07.189Z,14.70
2018-04-07T20:12:34.318Z,14.70
2018-04-07T20:15:00.587Z,14.70
2018-04-07T20:17:26.847Z,14.70
2018-04-07T20:19:53.185Z,14.60
2018-04-07T20:22:19.437Z,14.50
2018-04-07T20:24:45.670Z,14.50
2018-04-07T20:27:12.614Z,14.40
2018-04-07T20:29:38.841Z,14.40
2018-04-07T20:32:05.166Z,14.40
2018-04-07T20:34:31.446Z,14.40
2018-04-07T20:36:57.651Z,14.30
2018-04-07T20:39:24.608Z,14.20
2018-04-07T20:41:50.865Z,14.20
2018-04-07T20:44:29.441Z,14.20
2018-04-07T20:46:56.481Z,14.10
2018-04-07T20:49:24.147Z,14.10
2018-04-07T20:51:51.107Z,14.00
2018-04-07T20:54:17.357Z,14.00
2018-04-07T20:56:43.644Z,14.00
2018-04-07T20:59:10.595Z,13.90
2018-04-07T21:01:37.550Z,13.90
2018-04-07T21:04:04.484Z,13.80
2018-04-07T21:06:31.844Z,13.80
2018-04-07T21:08:58.073Z,13.80
2018-04-07T21:11:25.262Z,13.70
2018-04-07T21:13:51.637Z,13.70
2018-04-07T21:16:18.610Z,13.60
2018-04-07T21:18:45.643Z,13.60
2018-04-07T21:21:12.629Z,13.60
2018-04-07T21:23:38.840Z,13.50
2018-04-07T21:26:05.239Z,13.50
2018-04-07T21:28:31.733Z,13.50
2018-04-07T21:30:57.950Z,13.50
2018-04-07T21:33:24.187Z,13.40
2018-04-07T21:35:50.394Z,13.30
2018-04-07T21:38:16.598Z,13.30
2018-04-07T21:40:42.805Z,13.30
2018-04-07T21:43:09.037Z,13.20
2018-04-07T21:45:35.289Z,13.20
2018-04-07T21:48:02.254Z,13.10
2018-04-07T21:50:29.202Z,13.10
2018-04-07T21:52:55.614Z,13.00
2018-04-07T21:55:22.623Z,13.00
2018-04-07T21:57:48.851Z,13.00
2018-04-07T22:00:15.094Z,13.00
2018-04-07T22:02:41.445Z,12.90
2018-04-07T22:05:07.846Z,12.90
2018-04-07T22:07:34.108Z,12.80
2018-04-07T22:10:01.132Z,12.80
2018-04-07T22:12:27.792Z,12.80
2018-04-07T22:14:54.828Z,12.70
2018-04-07T22:17:21.124Z,12.70
2018-04-07T22:19:47.457Z,12.60
2018-04-07T22:22:13.700Z,12.60
2018-04-07T22:24:40.009Z,12.60
2018-04-07T22:27:06.261Z,12.50
2018-04-07T22:29:32.539Z,12.50
2018-04-07T22:31:58.941Z,12.50
2018-04-07T22:34:25.221Z,12.50
2018-04-07T22:36:51.481Z,12.50
2018-04-07T22:39:17.898Z,12.40
2018-04-07T22:41:44.277Z,12.40
2018-04-07T22:44:10.612Z,12.30
2018-04-07T22:46:36.923Z,12.30
2018-04-07T22:49:03.448Z,12.30
2018-04-07T22:51:29.684Z,12.20
2018-04-07T22:53:56.346Z,12.20
2018-04-07T22:56:22.615Z,12.10
2018-04-07T22:58:48.938Z,12.10
2018-04-07T23:01:15.196Z,12.10
2018-04-07T23:03:41.468Z,12.00
2018-04-07T23:06:07.731Z,12.00
2018-04-07T23:08:34.126Z,11.90
2018-04-07T23:11:00.365Z,11.90
2018-04-07T23:13:26.606Z,11.80
2018-04-07T23:15:53.979Z,11.80
2018-04-07T23:18:20.263Z,11.80
2018-04-07T23:20:46.535Z,11.70
2018-04-07T23:23:12.797Z,11.60
2018-04-07T23:25:39.068Z,11.60
2018-04-07T23:28:06.070Z,11.50
2018-04-07T23:30:32.436Z,11.50
2018-04-07T23:32:59.476Z,11.50
2018-04-07T23:35:25.711Z,11.50
2018-04-07T23:37:52.757Z,11.40
2018-04-07T23:40:19.796Z,11.40
2018-04-07T23:42:46.083Z,11.30
2018-04-07T23:45:12.318Z,11.30
2018-04-07T23:47:38.597Z,11.30
2018-04-07T23:50:05.601Z,11.30
2018-04-07T23:52:31.942Z,11.20
2018-04-07T23:54:58.193Z,11.20
2018-04-07T23:57:24.544Z,11.20
2018-04-07T23:59:51.622Z,11.10
